Time;durP1;ratioP1;P1;durP2;ratioP2;P2;SDS_P1;SDS_P2;PMS_P1;PMS_P2;Temp;Humidity;BMP_temperature;BMP_pressure;BME280_temperature;BME280_humidity;BME280_pressure;Samples;Min_cycle;Max_cycle;Signal;HPM_P1;HPM_P2
2022/09/21 00:01:15;;;;;;;9.70;6.60;;;;;;;7.66;92.06;98710.17;105483;1277;25348;-72
2022/09/21 00:03:42;;;;;;;10.40;6.50;;;;;;;7.65;91.83;98710.94;105702;1274;138004;-72
2022/09/21 00:06:13;;;;;;;9.60;6.80;;;;;;;7.62;91.60;98708.90;105886;1274;25323;-74
2022/09/21 00:08:41;;;;;;;11.10;6.80;;;;;;;7.61;91.89;98712.92;105872;1274;22858;-72
2022/09/21 00:11:12;;;;;;;11.20;6.30;;;;;;;7.58;91.62;98709.68;105556;1274;138075;-72
2022/09/21 00:13:40;;;;;;;10.40;5.60;;;;;;;7.57;91.81;98710.40;105877;1274;22550;-72
2022/09/21 00:16:08;;;;;;;8.70;5.40;;;;;;;7.54;91.54;98707.13;105746;1275;138245;-72
2022/09/21 00:18:35;;;;;;;9.30;5.70;;;;;;;7.53;91.71;98703.30;105840;1277;24210;-72
2022/09/21 00:21:07;;;;;;;10.40;6.20;;;;;;;7.53;91.77;98709.40;105868;1277;25382;-72
2022/09/21 00:23:34;;;;;;;12.70;5.00;;;;;;;7.52;91.56;98706.02;105835;1275;137819;-72
2022/09/21 00:26:23;;;;;;;7.80;5.20;;;;;;;7.51;91.50;98707.45;105864;1274;30560;-73
2022/09/21 00:28:58;;;;;;;8.10;5.50;;;;;;;7.51;91.66;98707.28;105766;1274;138198;-72
2022/09/21 00:31:25;;;;;;;6.60;4.70;;;;;;;7.51;91.40;98712.11;105912;1274;22551;-72
2022/09/21 00:33:52;;;;;;;7.40;4.80;;;;;;;7.52;91.42;98712.77;105657;1274;138128;-72
2022/09/21 00:36:21;;;;;;;7.70;4.70;;;;;;;7.52;91.49;98717.23;105878;1277;22531;-72
2022/09/21 00:38:52;;;;;;;7.80;4.70;;;;;;;7.51;91.66;98714.45;106007;1274;24319;-73
2022/09/21 00:41:19;;;;;;;7.50;4.80;;;;;;;7.50;91.28;98718.04;105797;1274;137497;-72
2022/09/21 00:44:24;;;;;;;8.60;4.90;;;;;;;7.49;91.60;98721.46;105838;1277;22543;-72
2022/09/21 00:46:54;;;;;;;7.70;5.40;;;;;;;7.47;91.38;98716.64;105687;1274;137781;-73
2022/09/21 00:49:21;;;;;;;8.00;5.50;;;;;;;7.48;91.95;98719.59;105929;1274;25483;-72
2022/09/21 00:51:48;;;;;;;8.60;5.90;;;;;;;7.49;91.91;98717.26;105756;1274;138188;-72
2022/09/21 00:54:23;;;;;;;6.80;5.00;;;;;;;7.50;92.18;98715.48;105988;1274;22598;-72
2022/09/21 00:56:49;;;;;;;8.80;5.50;;;;;;;7.51;91.79;98717.70;105822;1277;22548;-74
2022/09/21 00:59:18;;;;;;;7.20;5.50;;;;;;;7.52;91.80;98719.23;105686;1274;138345;-73
2022/09/21 01:01:46;;;;;;;8.80;5.50;;;;;;;7.52;91.73;98720.86;105855;1274;24309;-72
2022/09/21 01:04:14;;;;;;;9.40;5.50;;;;;;;7.52;91.83;98720.31;105762;1277;138014;-72
2022/09/21 01:06:40;;;;;;;9.10;5.20;;;;;;;7.52;91.94;98721.36;105810;1274;24335;-73
2022/09/21 01:09:07;;;;;;;8.60;5.40;;;;;;;7.52;92.02;98722.02;105965;1274;22721;-72
2022/09/21 01:11:42;;;;;;;7.00;4.90;;;;;;;7.53;92.25;98725.23;105821;1274;137815;-72
2022/09/21 01:14:14;;;;;;;10.60;5.30;;;;;;;7.55;92.26;98729.31;105661;1274;22671;-72
2022/09/21 01:16:55;;;;;;;10.90;5.80;;;;;;;7.55;92.40;98732.64;105706;1275;138305;-72
2022/09/21 01:19:57;;;;;;;11.20;6.00;;;;;;;7.56;92.21;98735.42;105825;1275;22717;-72
2022/09/21 01:22:47;;;;;;;11.80;5.20;;;;;;;7.56;92.51;98732.20;105763;1277;138456;-72
2022/09/21 01:25:25;;;;;;;10.20;5.50;;;;;;;7.56;92.43;98729.63;105841;1277;22697;-73
2022/09/21 01:28:00;;;;;;;9.10;5.90;;;;;;;7.57;92.49;98734.64;105705;1274;138408;-72
2022/09/21 01:30:29;;;;;;;11.60;6.60;;;;;;;7.57;92.72;98734.51;105859;1274;24416;-72
2022/09/21 01:33:06;;;;;;;9.50;5.90;;;;;;;7.58;92.69;98733.70;105925;1274;24328;-72
2022/09/21 01:35:40;;;;;;;12.10;6.90;;;;;;;7.59;92.64;98735.20;105738;1274;137802;-72
2022/09/21 01:38:11;;;;;;;11.40;7.90;;;;;;;7.60;92.84;98731.07;105840;1274;30587;-72
2022/09/21 01:40:45;;;;;;;13.40;7.70;;;;;;;7.62;92.67;98733.77;105721;1275;137996;-72
2022/09/21 01:43:24;;;;;;;13.90;7.20;;;;;;;7.63;92.77;98731.59;105827;1274;24224;-72
2022/09/21 01:45:53;;;;;;;12.90;7.10;;;;;;;7.64;92.85;98731.41;105715;1277;138428;-73
2022/09/21 01:48:21;;;;;;;;;;;;;;;7.65;93.05;98731.45;105958;1274;30768;-72
2022/09/21 01:50:55;;;;;;;10.90;6.80;;;;;;;7.65;92.82;98728.99;105845;1274;22684;-72
2022/09/21 01:53:48;;;;;;;11.00;7.20;;;;;;;7.66;93.14;98730.48;105811;1274;138049;-72
2022/09/21 01:56:17;;;;;;;16.10;8.10;;;;;;;7.67;93.27;98736.61;105793;1274;22991;-72
2022/09/21 01:59:00;;;;;;;12.40;7.90;;;;;;;7.68;93.25;98737.52;105775;1277;137989;-72
2022/09/21 02:01:30;;;;;;;12.00;7.60;;;;;;;7.70;93.24;98739.99;105810;1277;22489;-72
2022/09/21 02:04:03;;;;;;;13.90;8.00;;;;;;;7.71;93.40;98739.29;105714;1277;138210;-72
2022/09/21 02:06:29;;;;;;;13.00;8.50;;;;;;;7.73;93.43;98739.31;105839;1274;24939;-72
2022/09/21 02:08:56;;;;;;;13.70;8.20;;;;;;;7.73;93.31;98739.48;105838;1274;25586;-72
2022/09/21 02:11:23;;;;;;;11.70;8.00;;;;;;;7.72;93.29;98739.66;105810;1274;138481;-72
2022/09/21 02:13:52;;;;;;;13.30;8.60;;;;;;;7.73;93.50;98741.65;105845;1274;24275;-72
2022/09/21 02:16:29;;;;;;;;;;;;;;;7.75;93.78;98741.05;105836;1274;138217;-72
2022/09/21 02:19:23;;;;;;;12.60;8.20;;;;;;;7.76;93.50;98742.39;105697;1277;30488;-72
2022/09/21 02:22:10;;;;;;;14.30;9.00;;;;;;;7.77;93.70;98747.05;105371;1278;138865;-72
2022/09/21 02:24:49;;;;;;;11.80;8.50;;;;;;;7.78;93.63;98741.74;105638;1277;22650;-72
2022/09/21 02:27:21;;;;;;;13.70;9.30;;;;;;;7.79;93.57;98743.69;105685;1276;22706;-72
2022/09/21 02:29:55;;;;;;;14.30;10.00;;;;;;;7.82;94.05;98742.30;105638;1276;138503;-72
2022/09/21 02:32:22;;;;;;;14.60;9.80;;;;;;;7.83;93.91;98741.20;105686;1276;25662;-72
2022/09/21 02:34:58;;;;;;;13.80;9.70;;;;;;;7.85;93.90;98737.86;105540;1276;138248;-73
2022/09/21 02:37:45;;;;;;;14.50;9.10;;;;;;;7.86;93.80;98744.14;105595;1277;25375;-72
2022/09/21 02:40:35;;;;;;;20.70;10.40;;;;;;;7.88;93.98;98744.50;105522;1277;138272;-72
2022/09/21 02:43:10;;;;;;;16.20;9.20;;;;;;;7.88;93.90;98745.17;105611;1277;22560;-72
2022/09/21 02:45:44;;;;;;;18.20;10.00;;;;;;;7.88;93.69;98750.39;105554;1277;138636;-72
2022/09/21 02:48:17;;;;;;;16.90;10.30;;;;;;;7.88;93.75;98748.84;105645;1276;22582;-72
2022/09/21 02:50:53;;;;;;;20.30;10.40;;;;;;;7.88;93.70;98750.17;105577;1277;23221;-72
2022/09/21 02:53:24;;;;;;;18.00;10.90;;;;;;;7.88;93.50;98755.30;105571;1276;138293;-72
2022/09/21 02:55:53;;;;;;;19.50;12.20;;;;;;;7.88;93.81;98755.27;105659;1278;24302;-72
2022/09/21 02:58:22;;;;;;;17.60;11.30;;;;;;;7.88;93.96;98757.98;105547;1277;138398;-72
2022/09/21 03:00:49;;;;;;;18.40;11.60;;;;;;;7.88;93.73;98760.30;105786;1277;24341;-72
2022/09/21 03:03:16;;;;;;;17.70;11.60;;;;;;;7.89;94.08;98758.27;105739;1277;22614;-72
2022/09/21 03:05:45;;;;;;;23.40;12.70;;;;;;;7.89;93.94;98759.30;105549;1277;138251;-72
2022/09/21 03:08:11;;;;;;;20.60;11.70;;;;;;;7.89;93.82;98760.44;105699;1277;24326;-72
2022/09/21 03:10:39;;;;;;;20.30;12.60;;;;;;;7.88;93.98;98765.40;105525;1277;138309;-72
2022/09/21 03:13:10;;;;;;;19.20;12.40;;;;;;;7.87;94.03;98763.75;105658;1276;23158;-72
2022/09/21 03:15:37;;;;;;;19.30;12.20;;;;;;;7.87;93.94;98765.63;105498;1277;138482;-72
2022/09/21 03:18:05;;;;;;;18.40;11.10;;;;;;;7.85;93.93;98769.48;105656;1277;22572;-72
2022/09/21 03:20:32;;;;;;;18.40;12.30;;;;;;;7.81;94.46;98770.50;105709;1277;22563;-72
2022/09/21 03:22:59;;;;;;;18.20;11.50;;;;;;;7.78;94.38;98769.94;105623;1277;138549;-72
2022/09/21 03:25:27;;;;;;;22.50;12.80;;;;;;;7.74;94.59;98769.70;105589;1277;24413;-72
2022/09/21 03:27:53;;;;;;;19.10;11.40;;;;;;;7.72;94.57;98777.82;105631;1277;139514;-72
2022/09/21 03:30:21;;;;;;;19.30;12.00;;;;;;;7.69;95.04;98780.01;105698;1277;25249;-72
2022/09/21 03:32:54;;;;;;;20.00;11.50;;;;;;;7.67;94.99;98783.98;105642;1277;24376;-73
2022/09/21 03:35:22;;;;;;;18.10;11.00;;;;;;;7.66;95.13;98785.08;105585;1277;138119;-73
2022/09/21 03:37:49;;;;;;;21.70;12.60;;;;;;;7.65;95.21;98787.13;105816;1277;25266;-72
2022/09/21 03:40:16;;;;;;;21.00;11.80;;;;;;;7.63;95.63;98791.42;105630;1277;138340;-72
2022/09/21 03:42:43;;;;;;;22.00;12.40;;;;;;;7.63;95.35;98787.80;105697;1277;22545;-72
2022/09/21 03:45:10;;;;;;;16.60;10.10;;;;;;;7.65;95.65;98791.71;105674;1277;22857;-72
2022/09/21 03:47:38;;;;;;;18.30;11.20;;;;;;;7.64;95.67;98791.25;105677;1277;138294;-71
2022/09/21 03:50:05;;;;;;;20.00;11.70;;;;;;;7.65;95.66;98790.09;105618;1277;22563;-72
2022/09/21 03:52:32;;;;;;;19.80;11.40;;;;;;;7.65;95.73;98792.05;105545;1277;138806;-72
2022/09/21 03:54:58;;;;;;;20.60;10.30;;;;;;;7.66;95.46;98796.96;105725;1277;22543;-72
2022/09/21 03:57:24;;;;;;;19.80;11.80;;;;;;;7.66;95.76;98798.54;105664;1277;22569;-72
2022/09/21 03:59:53;;;;;;;20.30;11.70;;;;;;;7.67;95.60;98799.38;105737;1277;138169;-72
2022/09/21 04:02:19;;;;;;;20.20;12.40;;;;;;;7.68;95.79;98797.77;105817;1277;22579;-72
2022/09/21 04:04:45;;;;;;;20.80;12.60;;;;;;;7.69;95.98;98806.61;105685;1277;138316;-71
2022/09/21 04:07:11;;;;;;;19.60;11.90;;;;;;;7.71;95.73;98810.35;105838;1274;26970;-71
2022/09/21 04:09:37;;;;;;;19.90;11.60;;;;;;;7.72;96.04;98811.55;105671;1277;138544;-71
2022/09/21 04:12:04;;;;;;;19.60;11.80;;;;;;;7.73;95.92;98812.72;105508;1277;22550;-71
2022/09/21 04:14:30;;;;;;;18.40;11.10;;;;;;;7.74;95.85;98814.71;105831;1277;22552;-71
2022/09/21 04:16:56;;;;;;;17.80;10.00;;;;;;;7.74;95.91;98816.09;105721;1274;138194;-71
2022/09/21 04:19:22;;;;;;;16.20;11.10;;;;;;;7.72;96.08;98816.98;105787;1277;22562;-71
2022/09/21 04:21:50;;;;;;;16.60;11.30;;;;;;;7.73;96.05;98816.56;105700;1274;138595;-71
2022/09/21 04:24:18;;;;;;;15.60;10.90;;;;;;;7.74;96.16;98817.59;105883;1276;22544;-71
2022/09/21 04:26:45;;;;;;;18.90;13.20;;;;;;;7.76;96.09;98817.54;105878;1277;22656;-72
2022/09/21 04:29:12;;;;;;;14.60;10.60;;;;;;;7.78;96.24;98819.23;105715;1277;138259;-73
2022/09/21 04:31:38;;;;;;;15.00;10.70;;;;;;;7.80;96.22;98816.18;105843;1274;25475;-74
2022/09/21 04:34:04;;;;;;;14.60;9.30;;;;;;;7.82;95.94;98813.80;105725;1274;138370;-72
2022/09/21 04:36:31;;;;;;;18.20;10.60;;;;;;;7.83;96.00;98812.50;105898;1274;25340;-72
2022/09/21 04:38:59;;;;;;;19.20;10.30;;;;;;;7.84;96.08;98815.68;105831;1274;22575;-72
2022/09/21 04:41:26;;;;;;;19.10;11.00;;;;;;;7.87;95.95;98814.55;105888;1277;138366;-72
2022/09/21 04:43:52;;;;;;;16.60;10.80;;;;;;;7.91;96.19;98816.36;105882;1277;24268;-72
2022/09/21 04:46:19;;;;;;;16.90;10.50;;;;;;;7.94;95.85;98817.42;105717;1277;138638;-72
2022/09/21 04:48:47;;;;;;;15.70;11.30;;;;;;;7.96;95.86;98812.95;105748;1277;178497;-72
2022/09/21 04:51:15;;;;;;;16.80;10.70;;;;;;;8.00;95.79;98816.34;105882;1277;24241;-72
2022/09/21 04:53:43;;;;;;;17.60;11.60;;;;;;;8.03;95.59;98821.38;105786;1275;138426;-72
2022/09/21 04:56:13;;;;;;;13.60;9.20;;;;;;;8.06;95.63;98821.42;105856;1274;22571;-72
2022/09/21 04:58:39;;;;;;;19.90;12.10;;;;;;;8.08;95.46;98825.30;105739;1277;138069;-72
2022/09/21 05:01:06;;;;;;;16.10;10.30;;;;;;;8.08;95.47;98824.33;105772;1276;24446;-72
2022/09/21 05:03:33;;;;;;;13.10;10.20;;;;;;;8.09;95.25;98823.98;105456;1278;138451;-72
2022/09/21 05:05:59;;;;;;;14.50;10.20;;;;;;;8.11;95.23;98822.35;105703;1277;24040;-72
2022/09/21 05:11:14;;;;;;;17.20;11.90;;;;;;;8.16;95.54;98824.60;105644;1277;139052;-72
2022/09/21 05:13:42;;;;;;;18.20;11.80;;;;;;;8.20;95.54;98829.71;105838;1275;24241;-73
2022/09/21 05:16:08;;;;;;;14.40;10.70;;;;;;;8.24;95.27;98833.73;106166;1275;138554;-72
2022/09/21 05:18:34;;;;;;;15.30;9.80;;;;;;;8.26;95.18;98833.59;106080;1275;22542;-72
2022/09/21 05:21:03;;;;;;;15.60;10.20;;;;;;;8.28;94.82;98835.11;105809;1277;25505;-72
2022/09/21 05:23:30;;;;;;;16.00;9.80;;;;;;;8.28;94.81;98833.23;105916;1277;138648;-72
2022/09/21 05:25:58;;;;;;;15.90;10.50;;;;;;;8.29;94.68;98836.35;105847;1274;24289;-72
2022/09/21 05:28:25;;;;;;;17.60;12.10;;;;;;;8.31;95.09;98837.85;105748;1277;138845;-72
2022/09/21 05:31:03;;;;;;;19.20;11.50;;;;;;;8.35;95.07;98839.83;105793;1277;25714;-72
2022/09/21 05:33:32;;;;;;;16.40;10.80;;;;;;;8.39;94.96;98836.44;106541;1275;25279;-72
2022/09/21 05:36:23;;;;;;;15.00;11.40;;;;;;;8.41;94.78;98841.54;106355;1277;22563;-72
2022/09/21 05:38:50;;;;;;;14.60;10.10;;;;;;;8.43;94.64;98843.96;106550;1277;22658;-73
2022/09/21 05:41:16;;;;;;;18.50;11.30;;;;;;;8.43;94.82;98844.75;106174;1277;138251;-72
2022/09/21 05:43:43;;;;;;;14.80;9.50;;;;;;;8.44;94.68;98844.59;106095;1274;22550;-72
2022/09/21 05:46:24;;;;;;;15.10;9.90;;;;;;;8.45;94.62;98846.08;105847;1277;138193;-72
2022/09/21 05:49:00;;;;;;;12.40;9.50;;;;;;;8.45;94.47;98848.63;106240;1274;23016;-72
2022/09/21 05:52:06;;;;;;;18.50;10.50;;;;;;;8.44;94.36;98849.30;106065;1274;22538;-72
2022/09/21 05:54:44;;;;;;;13.60;9.30;;;;;;;8.44;94.69;98847.25;106001;1275;22800;-71
2022/09/21 05:57:25;;;;;;;12.90;9.30;;;;;;;8.46;94.88;98847.48;106018;1274;24381;-71
2022/09/21 06:00:08;;;;;;;15.60;9.60;;;;;;;8.50;94.89;98844.95;105999;1274;137903;-74
2022/09/21 06:02:49;;;;;;;15.60;9.50;;;;;;;8.64;95.56;98841.20;107691;1274;23245;-72
2022/09/21 06:05:16;;;;;;;14.60;9.60;;;;;;;8.70;94.82;98849.50;107515;1276;138020;-72
2022/09/21 06:07:42;;;;;;;16.80;10.10;;;;;;;8.72;94.49;98848.86;106494;1276;22775;-71
2022/09/21 06:10:11;;;;;;;14.40;9.30;;;;;;;8.74;94.38;98852.71;105881;1274;138417;-71
2022/09/21 06:12:38;;;;;;;15.30;10.40;;;;;;;8.76;94.32;98855.41;106762;1274;23206;-72
2022/09/21 06:15:06;;;;;;;17.30;10.60;;;;;;;8.81;94.65;98855.52;106259;1274;22567;-71
2022/09/21 06:17:32;;;;;;;17.00;10.70;;;;;;;8.84;94.37;98849.94;105986;1274;138361;-71
2022/09/21 06:19:58;;;;;;;18.90;10.50;;;;;;;8.87;94.38;98852.72;106113;1274;22547;-71
2022/09/21 06:22:25;;;;;;;19.50;10.20;;;;;;;8.91;94.44;98855.69;106230;1274;137907;-71
2022/09/21 06:24:54;;;;;;;14.10;8.70;;;;;;;8.95;94.28;98854.93;106213;1274;24406;-72
2022/09/21 06:27:31;;;;;;;15.10;8.30;;;;;;;8.99;93.73;98855.48;106662;1274;23746;-72
2022/09/21 06:30:01;;;;;;;15.70;9.70;;;;;;;9.00;93.77;98856.98;105846;1277;22678;-71
2022/09/21 06:32:27;;;;;;;14.40;8.90;;;;;;;9.02;93.80;98856.37;105824;1277;23671;-71
2022/09/21 06:34:54;;;;;;;14.60;10.00;;;;;;;9.05;93.72;98858.97;105863;1274;138256;-71
2022/09/21 06:37:20;;;;;;;14.30;9.10;;;;;;;9.08;93.76;98860.10;105803;1274;24015;-71
2022/09/21 06:39:46;;;;;;;16.10;9.00;;;;;;;9.12;93.65;98854.83;105663;1274;138273;-71
2022/09/21 06:42:12;;;;;;;12.10;8.30;;;;;;;9.17;93.57;98852.87;105811;1274;22564;-71
2022/09/21 06:44:39;;;;;;;10.80;7.20;;;;;;;9.21;93.40;98856.04;105756;1277;25450;-72
2022/09/21 06:47:05;;;;;;;14.70;9.60;;;;;;;9.27;93.61;98857.77;105832;1277;137941;-71
2022/09/21 06:49:31;;;;;;;17.30;9.30;;;;;;;9.31;93.46;98857.96;105893;1277;24329;-71
2022/09/21 06:51:57;;;;;;;15.70;9.60;;;;;;;9.38;93.24;98857.19;105753;1277;138572;-72
2022/09/21 06:54:24;;;;;;;14.80;7.40;;;;;;;9.44;93.16;98859.48;105976;1274;22728;-71
2022/09/21 06:56:51;;;;;;;15.20;8.30;;;;;;;9.48;92.66;98862.86;106177;1274;25268;-70
2022/09/21 06:59:17;;;;;;;10.30;7.40;;;;;;;9.48;91.76;98866.66;105929;1274;138016;-70
2022/09/21 07:01:43;;;;;;;11.40;6.50;;;;;;;9.49;91.85;98867.13;105972;1274;24088;-71
2022/09/21 07:04:09;;;;;;;11.80;7.50;;;;;;;9.51;91.85;98872.78;105755;1277;138271;-72
2022/09/21 07:06:35;;;;;;;14.60;9.30;;;;;;;9.54;91.87;98871.83;106040;1277;22564;-71
2022/09/21 07:09:04;;;;;;;20.70;11.10;;;;;;;9.57;91.84;98871.59;105713;1278;22548;-71
2022/09/21 07:11:30;;;;;;;11.80;8.20;;;;;;;9.62;92.12;98877.29;105957;1277;138305;-71
2022/09/21 07:13:57;;;;;;;13.60;8.90;;;;;;;9.65;91.61;98875.71;105963;1275;22559;-71
2022/09/21 07:16:24;;;;;;;13.40;8.30;;;;;;;9.66;91.31;98880.14;105862;1274;138061;-70
2022/09/21 07:18:50;;;;;;;14.10;8.80;;;;;;;9.71;90.83;98879.36;106017;1274;25274;-71
2022/09/21 07:21:16;;;;;;;9.90;6.70;;;;;;;9.74;90.78;98881.16;105904;1277;24341;-71
2022/09/21 07:23:42;;;;;;;12.20;8.10;;;;;;;9.78;90.21;98882.83;105728;1277;137849;-71
2022/09/21 07:26:11;;;;;;;12.80;7.20;;;;;;;9.81;90.51;98884.66;105898;1277;23932;-71
2022/09/21 07:28:44;;;;;;;10.20;6.40;;;;;;;9.85;90.46;98884.83;105530;1278;138527;-71
2022/09/21 07:31:14;;;;;;;12.30;8.60;;;;;;;9.89;90.59;98885.66;105857;1277;24512;-71
2022/09/21 07:33:45;;;;;;;11.70;7.60;;;;;;;9.96;90.54;98886.44;105977;1274;138694;-71
2022/09/21 07:36:16;;;;;;;8.20;5.90;;;;;;;10.03;89.73;98888.39;105893;1275;23068;-70
2022/09/21 07:38:47;;;;;;;11.00;7.60;;;;;;;10.11;89.43;98897.94;106129;1274;22540;-71
2022/09/21 07:41:13;;;;;;;11.10;7.40;;;;;;;10.17;89.57;98895.86;105903;1274;138455;-70
2022/09/21 07:43:40;;;;;;;11.60;6.60;;;;;;;10.20;89.00;98897.70;105901;1275;25529;-73
2022/09/21 07:46:09;;;;;;;8.80;5.90;;;;;;;10.22;88.83;98903.39;105956;1277;138310;-71
2022/09/21 07:48:36;;;;;;;7.90;5.70;;;;;;;10.25;89.05;98901.76;106117;1277;25343;-70
2022/09/21 07:51:08;;;;;;;8.20;5.50;;;;;;;10.30;88.24;98901.70;105960;1277;24546;-71
2022/09/21 07:53:36;;;;;;;8.20;5.10;;;;;;;10.32;87.67;98901.93;105682;1277;137947;-70
2022/09/21 07:56:05;;;;;;;8.80;4.50;;;;;;;10.33;87.01;98897.33;106047;1274;22544;-70
2022/09/21 08:01:16;;;;;;;5.10;4.10;;;;;;;10.29;87.20;98902.20;106202;1274;23382;-72
2022/09/21 08:03:43;;;;;;;10.50;4.80;;;;;;;10.28;87.74;98904.04;105855;1274;138066;-71
2022/09/21 08:06:09;;;;;;;7.60;4.70;;;;;;;10.23;87.26;98907.23;106054;1277;22567;-72
2022/09/21 08:08:35;;;;;;;6.60;4.70;;;;;;;10.18;87.67;98908.15;105890;1277;23066;-71
2022/09/21 08:11:05;;;;;;;12.40;7.30;;;;;;;10.14;87.95;98910.55;106127;1276;138018;-71
2022/09/21 08:13:31;;;;;;;10.70;7.40;;;;;;;10.12;88.63;98912.77;105923;1277;22682;-72
2022/09/21 08:15:59;;;;;;;16.90;10.10;;;;;;;10.13;89.17;98909.93;105881;1274;140305;-71
2022/09/21 08:18:26;;;;;;;14.30;9.70;;;;;;;10.15;89.50;98908.11;105945;1274;24309;-71
2022/09/21 08:20:58;;;;;;;14.30;10.50;;;;;;;10.17;89.51;98909.37;106008;1275;25302;-71
2022/09/21 08:23:27;;;;;;;11.40;8.20;;;;;;;10.18;89.58;98913.54;105989;1275;138497;-73
2022/09/21 08:26:00;;;;;;;10.20;5.90;;;;;;;10.21;89.37;98911.92;105942;1277;138115;-71
2022/09/21 08:28:28;;;;;;;7.40;5.30;;;;;;;10.23;89.32;98911.55;105872;1277;25640;-71
2022/09/21 08:30:58;;;;;;;6.80;4.80;;;;;;;10.26;88.90;98912.05;105915;1277;23968;-71
2022/09/21 08:33:24;;;;;;;6.20;4.40;;;;;;;10.30;88.90;98914.77;105490;1278;137678;-71
2022/09/21 08:35:52;;;;;;;7.60;5.30;;;;;;;10.34;89.33;98916.65;106154;1277;24294;-71
2022/09/21 08:38:19;;;;;;;7.30;6.50;;;;;;;10.36;89.06;98919.20;105851;1277;138296;-71
2022/09/21 08:40:45;;;;;;;5.70;4.50;;;;;;;10.35;88.44;98921.46;105873;1277;23329;-73
2022/09/21 08:43:21;;;;;;;4.90;4.40;;;;;;;10.34;88.44;98923.12;106449;1276;138498;-71
2022/09/21 08:45:47;;;;;;;5.70;4.40;;;;;;;10.30;88.11;98922.52;105942;1277;23375;-72
2022/09/21 08:48:23;;;;;;;5.00;4.20;;;;;;;10.27;88.22;98923.19;105862;1278;22530;-71
2022/09/21 08:50:55;;;;;;;6.20;4.00;;;;;;;10.29;88.36;98921.42;105938;1277;138358;-71
2022/09/21 08:53:30;;;;;;;5.60;4.40;;;;;;;10.32;88.31;98929.16;106076;1277;22544;-69
2022/09/21 08:55:56;;;;;;;5.60;4.10;;;;;;;10.33;87.88;98928.91;105799;1277;138316;-71
2022/09/21 08:58:28;;;;;;;7.20;4.50;;;;;;;10.33;87.89;98926.01;105958;1278;24315;-72
2022/09/21 09:01:06;;;;;;;5.00;3.50;;;;;;;10.39;88.41;98927.52;105944;1277;22544;-71
2022/09/21 09:03:56;;;;;;;5.30;3.40;;;;;;;10.42;86.84;98924.49;106107;1277;22573;-70
2022/09/21 09:06:48;;;;;;;3.50;3.00;;;;;;;10.46;86.99;98924.19;106027;1277;25258;-72
2022/09/21 09:09:20;;;;;;;5.30;3.20;;;;;;;10.53;86.86;98923.58;106282;1278;138882;-72
2022/09/21 09:11:56;;;;;;;4.00;3.40;;;;;;;10.59;86.35;98922.77;106527;1277;22563;-71
2022/09/21 09:14:31;;;;;;;3.00;2.60;;;;;;;10.65;86.53;98923.31;105984;1277;138327;-72
2022/09/21 09:17:25;;;;;;;4.00;2.90;;;;;;;10.70;85.45;98918.75;106043;1278;25786;-70
2022/09/21 09:20:21;;;;;;;3.70;2.70;;;;;;;10.68;84.96;98921.48;105911;1277;138012;-70
2022/09/21 09:23:11;;;;;;;3.10;2.60;;;;;;;10.64;84.33;98923.90;105833;1277;23249;-71
2022/09/21 09:25:41;;;;;;;4.80;2.60;;;;;;;10.66;84.96;98921.70;105742;1278;138261;-70
2022/09/21 09:28:23;;;;;;;3.50;3.00;;;;;;;10.67;84.92;98928.38;105987;1276;23414;-72
2022/09/21 09:30:59;;;;;;;4.20;2.70;;;;;;;10.66;85.17;98927.86;105749;1277;22706;-70
2022/09/21 09:33:33;;;;;;;3.30;3.00;;;;;;;10.65;85.07;98924.73;105885;1278;25268;-71
2022/09/21 09:36:06;;;;;;;4.20;2.80;;;;;;;10.64;85.01;98924.79;105869;1277;22563;-70
2022/09/21 09:38:44;;;;;;;4.60;2.60;;;;;;;10.62;84.73;98926.14;105868;1275;138215;-69
2022/09/21 09:41:32;;;;;;;3.90;2.40;;;;;;;10.60;84.49;98926.27;105993;1277;25273;-71
2022/09/21 09:44:37;;;;;;;4.50;2.90;;;;;;;10.62;84.49;98925.70;105846;1277;138564;-70
2022/09/21 09:47:11;;;;;;;3.50;2.90;;;;;;;10.71;84.80;98928.91;105803;1277;22860;-71
2022/09/21 09:49:38;;;;;;;6.40;3.20;;;;;;;10.80;84.55;98927.21;105685;1278;138865;-70
2022/09/21 09:52:09;;;;;;;4.10;3.10;;;;;;;10.83;84.24;98928.95;105824;1277;24519;-71
2022/09/21 09:54:36;;;;;;;3.90;3.40;;;;;;;10.85;83.76;98926.59;105973;1277;25444;-70
2022/09/21 09:57:04;;;;;;;3.60;3.10;;;;;;;10.87;84.52;98926.27;105832;1277;139342;-70
2022/09/21 09:59:36;;;;;;;3.80;2.90;;;;;;;10.91;84.08;98926.79;106134;1276;24089;-71
2022/09/21 10:02:17;;;;;;;5.80;3.40;;;;;;;10.93;84.29;98926.66;105942;1278;138656;-70
2022/09/21 10:05:07;;;;;;;3.40;3.00;;;;;;;10.93;83.78;98929.39;105855;1277;22661;-70
2022/09/21 10:07:37;;;;;;;6.90;3.60;;;;;;;10.92;83.97;98928.89;105793;1277;138613;-71
2022/09/21 10:10:32;;;;;;;5.90;3.50;;;;;;;10.95;84.09;98926.48;105841;1277;24323;-70
2022/09/21 10:13:04;;;;;;;4.60;3.40;;;;;;;11.00;84.13;98930.34;105828;1277;25347;-70
2022/09/21 10:15:31;;;;;;;4.50;3.70;;;;;;;11.01;84.01;98931.29;106490;1277;22557;-71
2022/09/21 10:18:05;;;;;;;5.50;3.70;;;;;;;11.02;84.30;98927.98;105862;1277;24440;-70
2022/09/21 10:20:32;;;;;;;5.20;3.10;;;;;;;11.04;84.09;98929.55;106124;1274;22579;-69
2022/09/21 10:22:59;;;;;;;4.90;3.40;;;;;;;11.04;83.50;98929.33;105802;1277;138017;-70
2022/09/21 10:25:25;;;;;;;5.10;3.50;;;;;;;11.06;83.47;98930.27;105885;1277;22608;-70
2022/09/21 10:27:55;;;;;;;8.10;4.50;;;;;;;11.10;83.17;98932.48;106007;1277;138161;-70
2022/09/21 10:30:37;;;;;;;7.90;4.20;;;;;;;11.17;83.12;98931.33;105897;1277;22886;-71
2022/09/21 10:33:19;;;;;;;5.80;4.20;;;;;;;11.23;82.90;98930.65;105859;1276;24437;-71
2022/09/21 10:35:51;;;;;;;6.90;4.10;;;;;;;11.32;82.48;98930.02;106365;1277;138109;-70
2022/09/21 10:38:26;;;;;;;5.60;4.70;;;;;;;11.37;82.01;98929.44;106216;1277;22542;-69
2022/09/21 10:40:53;;;;;;;5.90;4.50;;;;;;;11.37;81.56;98926.33;106027;1277;138262;-69
2022/09/21 10:43:35;;;;;;;7.30;4.60;;;;;;;11.37;81.88;98924.86;106187;1277;22560;-70
2022/09/21 10:46:01;;;;;;;7.10;5.00;;;;;;;11.38;82.20;98928.42;106722;1274;140151;-70
2022/09/21 10:48:28;;;;;;;6.20;4.60;;;;;;;11.38;82.23;98924.94;106512;1277;23367;-70
2022/09/21 10:50:56;;;;;;;5.20;4.10;;;;;;;11.38;81.82;98929.34;105977;1277;24323;-69
2022/09/21 10:53:37;;;;;;;6.30;4.90;;;;;;;11.37;82.13;98932.13;106495;1277;138527;-69
2022/09/21 10:56:15;;;;;;;5.50;4.20;;;;;;;11.35;82.08;98929.73;106138;1277;22630;-69
2022/09/21 10:59:19;;;;;;;7.30;5.00;;;;;;;11.30;81.54;98930.36;105865;1278;138025;-69
2022/09/21 11:01:48;;;;;;;6.00;4.20;;;;;;;11.24;81.99;98934.43;106682;1275;25396;-69
2022/09/21 11:04:42;;;;;;;6.20;4.60;;;;;;;11.19;82.38;98931.07;105906;1277;138016;-69
2022/09/21 11:07:11;;;;;;;7.10;5.10;;;;;;;11.16;81.90;98934.52;105820;1278;24018;-68
2022/09/21 11:10:01;;;;;;;6.10;5.10;;;;;;;11.12;82.03;98931.86;105727;1277;137961;-69
2022/09/21 11:12:50;;;;;;;9.00;5.40;;;;;;;11.14;82.22;98930.05;105979;1277;22537;-69
2022/09/21 11:15:50;;;;;;;6.30;5.30;;;;;;;11.25;82.88;98934.27;105909;1277;23941;-71
2022/09/21 11:18:19;;;;;;;8.40;5.90;;;;;;;11.41;81.78;98925.88;105880;1277;24320;-69
2022/09/21 11:21:18;;;;;;;9.50;6.50;;;;;;;11.53;81.76;98927.34;105923;1277;22563;-69
2022/09/21 11:24:16;;;;;;;9.30;5.60;;;;;;;11.76;82.61;98926.71;105756;1275;137692;-69
2022/09/21 11:27:02;;;;;;;8.50;6.00;;;;;;;11.96;82.02;98918.05;105951;1274;22584;-69
2022/09/21 11:29:44;;;;;;;10.10;6.80;;;;;;;12.11;81.29;98921.30;106039;1277;137982;-69
2022/09/21 11:32:13;;;;;;;8.40;7.10;;;;;;;12.26;80.78;98921.99;106285;1277;22708;-68
2022/09/21 11:35:08;;;;;;;11.60;7.20;;;;;;;12.41;79.88;98922.77;105685;1277;138120;-68
2022/09/21 11:37:44;;;;;;;9.90;6.70;;;;;;;12.60;78.85;98914.95;105273;1283;23027;-71
2022/09/21 11:40:13;;;;;;;12.30;7.30;;;;;;;12.66;78.23;98915.66;105229;1283;137989;-68
2022/09/21 11:43:19;;;;;;;10.50;7.20;;;;;;;12.65;78.57;98914.51;105216;1283;24244;-68
2022/09/21 11:46:00;;;;;;;9.10;6.90;;;;;;;12.79;76.94;98911.61;105201;1283;138791;-68
2022/09/21 11:48:38;;;;;;;8.30;7.10;;;;;;;13.09;76.74;98906.89;105182;1283;22572;-68